sensor_id;sensor_type;location;lat;lon;timestamp;P1;durP1;ratioP1;P2;durP2;ratioP2
86084;SDS011;76694;53.530;50.016;2024-03-22T00:05:00;30.90;;;12.85;;
86084;SDS011;76694;53.530;50.016;2024-03-22T00:10:03;32.15;;;14.77;;
86084;SDS011;76694;53.530;50.016;2024-03-22T00:15:06;26.75;;;13.85;;
86084;SDS011;76694;53.530;50.016;2024-03-22T00:20:09;37.40;;;15.52;;
86084;SDS011;76694;53.530;50.016;2024-03-22T00:25:12;38.08;;;16.42;;
86084;SDS011;76694;53.530;50.016;2024-03-22T00:30:15;31.48;;;15.13;;
86084;SDS011;76694;53.530;50.016;2024-03-22T00:35:18;33.60;;;15.20;;
86084;SDS011;76694;53.530;50.016;2024-03-22T00:40:21;35.63;;;16.55;;
86084;SDS011;76694;53.530;50.016;2024-03-22T00:45:24;32.13;;;15.68;;
86084;SDS011;76694;53.530;50.016;2024-03-22T00:50:26;49.33;;;17.40;;
86084;SDS011;76694;53.530;50.016;2024-03-22T00:55:29;19.67;;;11.57;;
86084;SDS011;76694;53.530;50.016;2024-03-22T01:00:32;37.95;;;15.18;;
86084;SDS011;76694;53.530;50.016;2024-03-22T01:05:34;26.38;;;12.07;;
86084;SDS011;76694;53.530;50.016;2024-03-22T01:10:38;36.05;;;15.35;;
86084;SDS011;76694;53.530;50.016;2024-03-22T01:15:40;30.85;;;15.98;;
86084;SDS011;76694;53.530;50.016;2024-03-22T01:20:43;30.38;;;16.88;;
86084;SDS011;76694;53.530;50.016;2024-03-22T01:25:46;30.08;;;15.82;;
86084;SDS011;76694;53.530;50.016;2024-03-22T01:30:48;37.58;;;18.35;;
86084;SDS011;76694;53.530;50.016;2024-03-22T01:35:51;22.02;;;12.20;;
86084;SDS011;76694;53.530;50.016;2024-03-22T01:40:54;27.05;;;13.63;;
86084;SDS011;76694;53.530;50.016;2024-03-22T01:45:56;33.78;;;16.52;;
86084;SDS011;76694;53.530;50.016;2024-03-22T01:50:59;36.33;;;19.17;;
86084;SDS011;76694;53.530;50.016;2024-03-22T01:56:02;34.13;;;18.30;;
86084;SDS011;76694;53.530;50.016;2024-03-22T02:01:06;30.05;;;13.52;;
86084;SDS011;76694;53.530;50.016;2024-03-22T02:06:08;39.30;;;17.40;;
86084;SDS011;76694;53.530;50.016;2024-03-22T02:11:11;34.47;;;15.48;;
86084;SDS011;76694;53.530;50.016;2024-03-22T02:16:15;31.70;;;16.17;;
86084;SDS011;76694;53.530;50.016;2024-03-22T02:21:18;40.80;;;14.88;;
86084;SDS011;76694;53.530;50.016;2024-03-22T02:26:21;48.65;;;20.92;;
86084;SDS011;76694;53.530;50.016;2024-03-22T02:31:24;40.90;;;18.15;;
86084;SDS011;76694;53.530;50.016;2024-03-22T02:36:27;39.75;;;15.10;;
86084;SDS011;76694;53.530;50.016;2024-03-22T02:41:30;35.30;;;14.82;;
86084;SDS011;76694;53.530;50.016;2024-03-22T02:46:32;38.13;;;16.77;;
86084;SDS011;76694;53.530;50.016;2024-03-22T02:51:36;37.28;;;14.90;;
86084;SDS011;76694;53.530;50.016;2024-03-22T02:56:38;29.10;;;14.43;;
86084;SDS011;76694;53.530;50.016;2024-03-22T03:01:41;27.77;;;15.55;;
86084;SDS011;76694;53.530;50.016;2024-03-22T03:06:44;58.15;;;25.45;;
86084;SDS011;76694;53.530;50.016;2024-03-22T03:11:49;46.63;;;18.83;;
86084;SDS011;76694;53.530;50.016;2024-03-22T03:16:52;36.85;;;15.43;;
86084;SDS011;76694;53.530;50.016;2024-03-22T03:21:55;39.15;;;19.55;;
86084;SDS011;76694;53.530;50.016;2024-03-22T03:26:57;32.15;;;18.83;;
86084;SDS011;76694;53.530;50.016;2024-03-22T03:32:00;31.30;;;15.60;;
86084;SDS011;76694;53.530;50.016;2024-03-22T03:37:03;50.00;;;20.45;;
86084;SDS011;76694;53.530;50.016;2024-03-22T03:42:06;54.50;;;23.85;;
86084;SDS011;76694;53.530;50.016;2024-03-22T03:47:09;47.28;;;21.88;;
86084;SDS011;76694;53.530;50.016;2024-03-22T03:52:11;69.50;;;28.40;;
86084;SDS011;76694;53.530;50.016;2024-03-22T03:57:14;54.38;;;22.80;;
86084;SDS011;76694;53.530;50.016;2024-03-22T04:02:17;64.25;;;27.98;;
86084;SDS011;76694;53.530;50.016;2024-03-22T04:07:20;69.63;;;28.38;;
86084;SDS011;76694;53.530;50.016;2024-03-22T04:12:23;53.10;;;23.40;;
86084;SDS011;76694;53.530;50.016;2024-03-22T04:17:26;65.25;;;29.85;;
86084;SDS011;76694;53.530;50.016;2024-03-22T04:22:28;83.05;;;32.95;;
86084;SDS011;76694;53.530;50.016;2024-03-22T04:27:31;64.38;;;28.23;;
86084;SDS011;76694;53.530;50.016;2024-03-22T04:32:34;53.33;;;26.15;;
86084;SDS011;76694;53.530;50.016;2024-03-22T04:37:37;78.78;;;34.05;;
86084;SDS011;76694;53.530;50.016;2024-03-22T04:42:39;67.78;;;30.33;;
86084;SDS011;76694;53.530;50.016;2024-03-22T04:47:42;77.68;;;35.08;;
86084;SDS011;76694;53.530;50.016;2024-03-22T04:52:46;86.40;;;35.22;;
86084;SDS011;76694;53.530;50.016;2024-03-22T04:57:51;52.03;;;24.10;;
86084;SDS011;76694;53.530;50.016;2024-03-22T05:07:56;59.95;;;24.73;;
86084;SDS011;76694;53.530;50.016;2024-03-22T05:12:59;43.95;;;19.75;;
86084;SDS011;76694;53.530;50.016;2024-03-22T05:18:02;44.65;;;18.33;;
86084;SDS011;76694;53.530;50.016;2024-03-22T05:23:08;47.72;;;22.30;;
86084;SDS011;76694;53.530;50.016;2024-03-22T05:28:12;42.38;;;19.63;;
86084;SDS011;76694;53.530;50.016;2024-03-22T05:33:14;37.95;;;17.42;;
86084;SDS011;76694;53.530;50.016;2024-03-22T05:38:18;33.90;;;15.48;;
86084;SDS011;76694;53.530;50.016;2024-03-22T05:43:21;31.45;;;16.40;;
86084;SDS011;76694;53.530;50.016;2024-03-22T05:48:24;30.98;;;13.73;;
86084;SDS011;76694;53.530;50.016;2024-03-22T05:53:27;38.90;;;15.63;;
86084;SDS011;76694;53.530;50.016;2024-03-22T05:58:30;32.50;;;12.88;;
86084;SDS011;76694;53.530;50.016;2024-03-22T06:03:33;29.27;;;11.95;;
86084;SDS011;76694;53.530;50.016;2024-03-22T06:08:36;25.13;;;10.20;;
86084;SDS011;76694;53.530;50.016;2024-03-22T06:13:41;23.38;;;9.93;;
86084;SDS011;76694;53.530;50.016;2024-03-22T06:18:44;25.13;;;12.98;;
86084;SDS011;76694;53.530;50.016;2024-03-22T06:23:50;28.83;;;12.70;;
86084;SDS011;76694;53.530;50.016;2024-03-22T06:28:56;31.92;;;13.13;;
86084;SDS011;76694;53.530;50.016;2024-03-22T06:33:59;29.10;;;12.48;;
86084;SDS011;76694;53.530;50.016;2024-03-22T06:39:04;26.80;;;11.73;;
86084;SDS011;76694;53.530;50.016;2024-03-22T06:44:11;29.17;;;12.68;;
86084;SDS011;76694;53.530;50.016;2024-03-22T06:49:16;31.95;;;12.93;;
86084;SDS011;76694;53.530;50.016;2024-03-22T06:54:19;28.45;;;12.77;;
86084;SDS011;76694;53.530;50.016;2024-03-22T06:59:22;27.05;;;11.90;;
86084;SDS011;76694;53.530;50.016;2024-03-22T07:04:25;19.08;;;9.85;;
86084;SDS011;76694;53.530;50.016;2024-03-22T07:09:28;23.35;;;10.95;;
86084;SDS011;76694;53.530;50.016;2024-03-22T07:14:31;29.40;;;13.45;;
86084;SDS011;76694;53.530;50.016;2024-03-22T07:19:34;27.65;;;12.40;;
86084;SDS011;76694;53.530;50.016;2024-03-22T07:24:37;17.58;;;9.43;;
86084;SDS011;76694;53.530;50.016;2024-03-22T07:29:40;19.55;;;8.98;;
86084;SDS011;76694;53.530;50.016;2024-03-22T07:34:45;16.08;;;7.93;;
86084;SDS011;76694;53.530;50.016;2024-03-22T07:39:48;15.77;;;7.10;;
86084;SDS011;76694;53.530;50.016;2024-03-22T07:44:51;14.73;;;7.85;;
86084;SDS011;76694;53.530;50.016;2024-03-22T07:49:54;14.80;;;6.15;;
86084;SDS011;76694;53.530;50.016;2024-03-22T07:54:59;13.32;;;5.35;;
86084;SDS011;76694;53.530;50.016;2024-03-22T08:00:05;8.60;;;4.78;;
86084;SDS011;76694;53.530;50.016;2024-03-22T08:05:09;16.48;;;6.60;;
86084;SDS011;76694;53.530;50.016;2024-03-22T08:10:12;17.90;;;8.50;;
86084;SDS011;76694;53.530;50.016;2024-03-22T08:15:20;17.88;;;8.27;;
86084;SDS011;76694;53.530;50.016;2024-03-22T08:20:26;18.58;;;8.43;;
86084;SDS011;76694;53.530;50.016;2024-03-22T08:25:29;18.55;;;8.30;;
86084;SDS011;76694;53.530;50.016;2024-03-22T08:30:32;23.02;;;9.95;;
86084;SDS011;76694;53.530;50.016;2024-03-22T08:35:53;13.30;;;6.93;;
86084;SDS011;76694;53.530;50.016;2024-03-22T08:40:59;24.00;;;9.00;;
86084;SDS011;76694;53.530;50.016;2024-03-22T08:46:05;22.08;;;8.65;;
86084;SDS011;76694;53.530;50.016;2024-03-22T08:51:10;23.55;;;7.57;;
86084;SDS011;76694;53.530;50.016;2024-03-22T08:56:14;26.67;;;8.93;;
86084;SDS011;76694;53.530;50.016;2024-03-22T09:01:17;23.13;;;8.18;;
86084;SDS011;76694;53.530;50.016;2024-03-22T09:06:19;21.27;;;7.35;;
86084;SDS011;76694;53.530;50.016;2024-03-22T09:11:26;19.65;;;7.82;;
86084;SDS011;76694;53.530;50.016;2024-03-22T09:16:29;20.95;;;7.95;;
86084;SDS011;76694;53.530;50.016;2024-03-22T09:21:32;24.63;;;8.02;;
86084;SDS011;76694;53.530;50.016;2024-03-22T09:26:35;19.63;;;7.57;;
86084;SDS011;76694;53.530;50.016;2024-03-22T09:31:38;23.35;;;9.85;;
86084;SDS011;76694;53.530;50.016;2024-03-22T09:36:41;31.23;;;7.78;;
86084;SDS011;76694;53.530;50.016;2024-03-22T09:46:46;21.63;;;7.82;;
86084;SDS011;76694;53.530;50.016;2024-03-22T09:51:50;19.90;;;7.05;;
86084;SDS011;76694;53.530;50.016;2024-03-22T09:56:55;20.05;;;7.22;;
86084;SDS011;76694;53.530;50.016;2024-03-22T10:01:59;11.25;;;5.22;;
86084;SDS011;76694;53.530;50.016;2024-03-22T10:07:09;26.98;;;8.10;;
86084;SDS011;76694;53.530;50.016;2024-03-22T10:12:12;15.90;;;6.68;;
86084;SDS011;76694;53.530;50.016;2024-03-22T10:17:15;14.18;;;6.18;;
86084;SDS011;76694;53.530;50.016;2024-03-22T10:22:18;10.02;;;4.95;;
86084;SDS011;76694;53.530;50.016;2024-03-22T10:32:24;14.45;;;6.13;;
86084;SDS011;76694;53.530;50.016;2024-03-22T10:37:30;17.33;;;6.00;;
86084;SDS011;76694;53.530;50.016;2024-03-22T10:42:34;11.63;;;5.90;;
86084;SDS011;76694;53.530;50.016;2024-03-22T10:47:43;10.20;;;5.63;;
86084;SDS011;76694;53.530;50.016;2024-03-22T10:52:51;17.88;;;5.80;;
86084;SDS011;76694;53.530;50.016;2024-03-22T10:57:54;15.82;;;6.47;;
86084;SDS011;76694;53.530;50.016;2024-03-22T11:02:58;13.38;;;5.88;;
86084;SDS011;76694;53.530;50.016;2024-03-22T11:08:04;12.10;;;6.63;;
86084;SDS011;76694;53.530;50.016;2024-03-22T11:13:07;12.82;;;4.45;;
86084;SDS011;76694;53.530;50.016;2024-03-22T11:18:11;7.25;;;4.18;;
86084;SDS011;76694;53.530;50.016;2024-03-22T11:23:14;6.63;;;3.78;;
86084;SDS011;76694;53.530;50.016;2024-03-22T11:28:17;8.88;;;3.58;;
86084;SDS011;76694;53.530;50.016;2024-03-22T11:33:23;10.77;;;3.50;;
86084;SDS011;76694;53.530;50.016;2024-03-22T11:38:30;6.18;;;3.30;;
86084;SDS011;76694;53.530;50.016;2024-03-22T11:43:34;9.25;;;3.30;;
86084;SDS011;76694;53.530;50.016;2024-03-22T11:53:49;6.32;;;3.45;;
86084;SDS011;76694;53.530;50.016;2024-03-22T11:58:58;9.88;;;3.83;;
86084;SDS011;76694;53.530;50.016;2024-03-22T12:04:19;5.55;;;3.28;;
86084;SDS011;76694;53.530;50.016;2024-03-22T12:09:25;5.28;;;3.45;;
86084;SDS011;76694;53.530;50.016;2024-03-22T12:14:28;9.00;;;4.10;;
86084;SDS011;76694;53.530;50.016;2024-03-22T12:19:31;6.63;;;4.30;;
86084;SDS011;76694;53.530;50.016;2024-03-22T12:24:36;7.68;;;3.58;;
86084;SDS011;76694;53.530;50.016;2024-03-22T12:29:39;8.95;;;4.38;;
86084;SDS011;76694;53.530;50.016;2024-03-22T12:34:42;6.00;;;3.72;;
86084;SDS011;76694;53.530;50.016;2024-03-22T12:39:45;15.75;;;4.55;;
86084;SDS011;76694;53.530;50.016;2024-03-22T12:44:49;9.23;;;3.97;;
86084;SDS011;76694;53.530;50.016;2024-03-22T12:49:51;8.45;;;3.60;;
86084;SDS011;76694;53.530;50.016;2024-03-22T12:54:54;7.93;;;3.88;;
86084;SDS011;76694;53.530;50.016;2024-03-22T12:59:57;10.07;;;4.32;;
86084;SDS011;76694;53.530;50.016;2024-03-22T13:05:03;13.60;;;4.07;;
86084;SDS011;76694;53.530;50.016;2024-03-22T13:10:08;12.05;;;4.75;;
86084;SDS011;76694;53.530;50.016;2024-03-22T13:15:12;6.28;;;3.55;;
86084;SDS011;76694;53.530;50.016;2024-03-22T13:20:16;6.55;;;3.95;;
86084;SDS011;76694;53.530;50.016;2024-03-22T13:25:20;9.85;;;4.40;;
86084;SDS011;76694;53.530;50.016;2024-03-22T13:30:23;7.95;;;4.28;;
86084;SDS011;76694;53.530;50.016;2024-03-22T13:40:28;8.40;;;3.75;;
86084;SDS011;76694;53.530;50.016;2024-03-22T13:45:31;8.68;;;4.03;;
86084;SDS011;76694;53.530;50.016;2024-03-22T13:50:34;11.07;;;4.43;;
86084;SDS011;76694;53.530;50.016;2024-03-22T13:55:37;8.07;;;3.85;;
86084;SDS011;76694;53.530;50.016;2024-03-22T14:00:39;7.43;;;4.15;;
86084;SDS011;76694;53.530;50.016;2024-03-22T14:05:46;7.05;;;3.20;;
86084;SDS011;76694;53.530;50.016;2024-03-22T14:10:49;7.72;;;3.30;;
86084;SDS011;76694;53.530;50.016;2024-03-22T14:15:52;11.55;;;3.60;;
86084;SDS011;76694;53.530;50.016;2024-03-22T14:20:57;8.23;;;3.83;;
86084;SDS011;76694;53.530;50.016;2024-03-22T14:26:01;8.27;;;3.45;;
86084;SDS011;76694;53.530;50.016;2024-03-22T14:31:04;6.05;;;3.83;;
86084;SDS011;76694;53.530;50.016;2024-03-22T14:36:07;8.23;;;3.97;;
86084;SDS011;76694;53.530;50.016;2024-03-22T14:41:11;10.43;;;3.33;;
86084;SDS011;76694;53.530;50.016;2024-03-22T14:46:14;9.98;;;3.83;;
86084;SDS011;76694;53.530;50.016;2024-03-22T14:51:19;9.05;;;3.45;;
86084;SDS011;76694;53.530;50.016;2024-03-22T14:56:22;6.03;;;3.35;;
86084;SDS011;76694;53.530;50.016;2024-03-22T15:01:24;4.28;;;2.65;;
86084;SDS011;76694;53.530;50.016;2024-03-22T15:06:28;6.20;;;2.88;;
86084;SDS011;76694;53.530;50.016;2024-03-22T15:11:32;7.32;;;3.33;;
86084;SDS011;76694;53.530;50.016;2024-03-22T15:16:35;6.82;;;3.40;;
86084;SDS011;76694;53.530;50.016;2024-03-22T15:21:38;6.75;;;3.38;;
86084;SDS011;76694;53.530;50.016;2024-03-22T15:26:41;8.38;;;3.45;;
86084;SDS011;76694;53.530;50.016;2024-03-22T15:31:44;11.27;;;3.15;;
86084;SDS011;76694;53.530;50.016;2024-03-22T15:36:47;6.70;;;3.67;;
86084;SDS011;76694;53.530;50.016;2024-03-22T15:41:51;5.57;;;3.30;;
86084;SDS011;76694;53.530;50.016;2024-03-22T15:46:54;8.20;;;4.00;;
86084;SDS011;76694;53.530;50.016;2024-03-22T15:52:02;8.88;;;4.40;;
86084;SDS011;76694;53.530;50.016;2024-03-22T15:57:05;6.78;;;3.90;;
86084;SDS011;76694;53.530;50.016;2024-03-22T16:02:08;9.65;;;4.10;;
86084;SDS011;76694;53.530;50.016;2024-03-22T16:07:11;7.38;;;3.70;;
86084;SDS011;76694;53.530;50.016;2024-03-22T16:12:14;6.35;;;3.83;;
86084;SDS011;76694;53.530;50.016;2024-03-22T16:17:17;8.93;;;4.30;;
86084;SDS011;76694;53.530;50.016;2024-03-22T16:22:19;7.30;;;4.22;;
86084;SDS011;76694;53.530;50.016;2024-03-22T16:27:22;9.88;;;4.78;;
86084;SDS011;76694;53.530;50.016;2024-03-22T16:32:25;5.75;;;3.33;;
86084;SDS011;76694;53.530;50.016;2024-03-22T16:37:28;6.53;;;4.25;;
86084;SDS011;76694;53.530;50.016;2024-03-22T16:42:31;10.55;;;4.45;;
86084;SDS011;76694;53.530;50.016;2024-03-22T16:47:33;7.18;;;4.47;;
86084;SDS011;76694;53.530;50.016;2024-03-22T16:52:37;8.57;;;4.20;;
86084;SDS011;76694;53.530;50.016;2024-03-22T16:57:41;11.85;;;3.85;;
86084;SDS011;76694;53.530;50.016;2024-03-22T17:02:43;6.97;;;3.70;;
86084;SDS011;76694;53.530;50.016;2024-03-22T17:07:47;10.00;;;3.45;;
86084;SDS011;76694;53.530;50.016;2024-03-22T17:12:50;8.98;;;4.43;;
86084;SDS011;76694;53.530;50.016;2024-03-22T17:17:53;13.20;;;3.85;;
86084;SDS011;76694;53.530;50.016;2024-03-22T17:22:56;7.80;;;4.22;;
86084;SDS011;76694;53.530;50.016;2024-03-22T17:28:00;5.68;;;3.60;;
86084;SDS011;76694;53.530;50.016;2024-03-22T17:33:03;7.93;;;4.13;;
86084;SDS011;76694;53.530;50.016;2024-03-22T17:38:06;15.15;;;5.13;;
86084;SDS011;76694;53.530;50.016;2024-03-22T17:43:12;6.93;;;3.42;;
86084;SDS011;76694;53.530;50.016;2024-03-22T17:48:16;7.45;;;3.55;;
86084;SDS011;76694;53.530;50.016;2024-03-22T17:53:18;14.45;;;4.22;;
86084;SDS011;76694;53.530;50.016;2024-03-22T17:58:21;7.28;;;3.78;;
86084;SDS011;76694;53.530;50.016;2024-03-22T18:03:24;8.13;;;4.72;;
86084;SDS011;76694;53.530;50.016;2024-03-22T18:08:26;7.95;;;3.97;;
86084;SDS011;76694;53.530;50.016;2024-03-22T18:13:29;8.85;;;3.95;;
86084;SDS011;76694;53.530;50.016;2024-03-22T18:18:34;6.05;;;4.00;;
86084;SDS011;76694;53.530;50.016;2024-03-22T18:23:36;10.98;;;4.40;;
86084;SDS011;76694;53.530;50.016;2024-03-22T18:28:39;10.50;;;5.47;;
86084;SDS011;76694;53.530;50.016;2024-03-22T18:33:42;10.50;;;3.75;;
86084;SDS011;76694;53.530;50.016;2024-03-22T18:38:44;10.50;;;4.65;;
86084;SDS011;76694;53.530;50.016;2024-03-22T18:43:47;9.07;;;3.50;;
86084;SDS011;76694;53.530;50.016;2024-03-22T18:48:50;5.60;;;3.35;;
86084;SDS011;76694;53.530;50.016;2024-03-22T18:53:52;4.53;;;3.05;;
86084;SDS011;76694;53.530;50.016;2024-03-22T18:58:57;5.43;;;3.45;;
86084;SDS011;76694;53.530;50.016;2024-03-22T19:04:00;7.82;;;3.35;;
86084;SDS011;76694;53.530;50.016;2024-03-22T19:09:03;10.77;;;3.85;;
86084;SDS011;76694;53.530;50.016;2024-03-22T19:14:05;9.32;;;3.90;;
86084;SDS011;76694;53.530;50.016;2024-03-22T19:19:08;9.77;;;3.50;;
86084;SDS011;76694;53.530;50.016;2024-03-22T19:24:11;4.50;;;2.10;;
86084;SDS011;76694;53.530;50.016;2024-03-22T19:29:14;4.18;;;2.63;;
86084;SDS011;76694;53.530;50.016;2024-03-22T19:34:17;9.18;;;2.65;;
86084;SDS011;76694;53.530;50.016;2024-03-22T19:39:20;5.38;;;3.30;;
86084;SDS011;76694;53.530;50.016;2024-03-22T19:44:23;3.42;;;2.50;;
86084;SDS011;76694;53.530;50.016;2024-03-22T19:49:25;8.48;;;4.15;;
86084;SDS011;76694;53.530;50.016;2024-03-22T19:54:29;5.70;;;2.38;;
86084;SDS011;76694;53.530;50.016;2024-03-22T19:59:32;11.60;;;3.03;;
86084;SDS011;76694;53.530;50.016;2024-03-22T20:04:35;5.85;;;2.15;;
86084;SDS011;76694;53.530;50.016;2024-03-22T20:09:38;3.53;;;2.17;;
86084;SDS011;76694;53.530;50.016;2024-03-22T20:14:40;4.47;;;2.08;;
86084;SDS011;76694;53.530;50.016;2024-03-22T20:19:45;4.10;;;2.03;;
86084;SDS011;76694;53.530;50.016;2024-03-22T20:24:47;3.63;;;2.05;;
86084;SDS011;76694;53.530;50.016;2024-03-22T20:29:50;3.33;;;1.80;;
86084;SDS011;76694;53.530;50.016;2024-03-22T20:34:52;4.78;;;3.20;;
